createdAt,value
2023-01-30T00:01:18.148Z,101889.50
2023-01-30T00:03:44.994Z,101879.78
2023-01-30T00:06:12.053Z,101873.44
2023-01-30T00:08:39.187Z,101871.78
2023-01-30T00:11:07.547Z,101875.22
2023-01-30T00:13:35.066Z,101884.47
2023-01-30T00:16:02.071Z,101876.63
2023-01-30T00:18:29.163Z,101877.09
2023-01-30T00:20:57.103Z,101871.72
2023-01-30T00:23:23.588Z,101859.47
2023-01-30T00:25:50.704Z,101846.31
2023-01-30T00:28:17.753Z,101841.66
2023-01-30T00:30:44.764Z,101846.47
2023-01-30T00:33:11.537Z,101844.56
2023-01-30T00:35:38.069Z,101836.34
2023-01-30T00:38:04.511Z,101822.41
2023-01-30T00:40:31.184Z,101820.53
2023-01-30T00:43:16.404Z,101811.59
2023-01-30T00:46:03.883Z,101803.88
2023-01-30T00:48:30.978Z,101811.44
2023-01-30T00:50:57.603Z,101805.16
2023-01-30T00:53:24.834Z,101811.19
2023-01-30T00:55:52.076Z,101807.34
2023-01-30T00:58:18.973Z,101810.53
2023-01-30T01:00:46.578Z,101800.78
2023-01-30T01:03:13.596Z,101809.44
2023-01-30T01:05:40.223Z,101805.72
2023-01-30T01:08:06.944Z,101803.81
2023-01-30T01:10:33.505Z,101787.16
2023-01-30T01:13:00.648Z,101769.00
2023-01-30T01:15:27.390Z,101766.81
2023-01-30T01:17:54.755Z,101772.03
2023-01-30T01:20:22.372Z,101763.38
2023-01-30T01:22:53.836Z,101765.88
2023-01-30T01:25:21.279Z,101747.56
2023-01-30T01:27:48.280Z,101761.19
2023-01-30T01:30:15.064Z,101763.09
2023-01-30T01:32:45.014Z,101757.06
2023-01-30T01:35:11.886Z,101751.00
2023-01-30T01:37:38.643Z,101755.97
2023-01-30T01:40:24.983Z,101735.91
2023-01-30T01:42:51.643Z,101735.91
2023-01-30T01:45:24.573Z,101737.53
2023-01-30T01:48:00.568Z,101740.16
2023-01-30T01:50:42.701Z,101748.97
2023-01-30T01:53:12.431Z,101738.53
2023-01-30T01:55:42.114Z,101736.72
2023-01-30T01:58:17.456Z,101737.41
2023-01-30T02:00:44.191Z,101733.97
2023-01-30T02:03:15.695Z,101735.75
2023-01-30T02:05:47.969Z,101724.31
2023-01-30T02:08:20.987Z,101727.75
2023-01-30T02:11:03.553Z,101720.63
2023-01-30T02:13:31.189Z,101715.25
2023-01-30T02:16:01.852Z,101726.66
2023-01-30T02:18:34.414Z,101723.22
2023-01-30T02:21:38.725Z,101708.38
2023-01-30T02:24:16.279Z,101718.56
2023-01-30T02:27:02.174Z,101723.53
2023-01-30T02:29:50.324Z,101723.38
2023-01-30T02:32:24.708Z,101725.88
2023-01-30T02:35:05.566Z,101719.53
2023-01-30T02:38:14.630Z,101720.50
2023-01-30T02:41:12.220Z,101715.25
2023-01-30T02:43:46.741Z,101707.41
2023-01-30T02:46:22.561Z,101704.66
2023-01-30T02:49:07.620Z,101703.72
2023-01-30T02:51:37.182Z,101694.88
2023-01-30T02:54:07.136Z,101706.31
2023-01-30T02:56:52.647Z,101699.31
2023-01-30T02:59:26.814Z,101702.59
2023-01-30T03:01:53.261Z,101696.25
2023-01-30T03:04:37.485Z,101699.69
2023-01-30T03:07:38.888Z,101696.41
2023-01-30T03:10:11.354Z,101697.09
2023-01-30T03:12:50.012Z,101695.28
2023-01-30T03:15:28.719Z,101696.00
2023-01-30T03:17:56.140Z,101687.31
2023-01-30T03:20:22.792Z,101677.84
2023-01-30T03:22:49.564Z,101679.31
2023-01-30T03:25:23.488Z,101677.53
2023-01-30T03:27:53.581Z,101671.34
2023-01-30T03:30:20.718Z,101677.41
2023-01-30T03:32:47.266Z,101684.44
2023-01-30T03:35:15.458Z,101675.47
2023-01-30T03:37:42.256Z,101668.31
2023-01-30T03:40:09.865Z,101671.75
2023-01-30T03:42:36.536Z,101675.06
2023-01-30T03:45:03.461Z,101668.03
2023-01-30T03:47:30.143Z,101675.47
2023-01-30T03:49:56.639Z,101670.94
2023-01-30T03:52:23.681Z,101663.09
2023-01-30T03:54:50.343Z,101656.72
2023-01-30T03:57:16.845Z,101661.00
2023-01-30T03:59:43.485Z,101667.47
2023-01-30T04:02:10.366Z,101656.19
2023-01-30T04:04:37.499Z,101661.25
2023-01-30T04:07:04.084Z,101656.56
2023-01-30T04:09:30.519Z,101665.13
2023-01-30T04:11:57.047Z,101659.59
2023-01-30T04:14:23.614Z,101662.22
2023-01-30T04:16:50.299Z,101672.69
2023-01-30T04:19:16.952Z,101670.63
2023-01-30T04:21:43.482Z,101666.22
2023-01-30T04:24:10.101Z,101682.72
2023-01-30T04:26:36.729Z,101685.34
2023-01-30T04:29:03.625Z,101687.00
2023-01-30T04:31:30.729Z,101674.06
2023-01-30T04:33:57.773Z,101666.06
2023-01-30T04:36:24.417Z,101677.06
2023-01-30T04:38:51.020Z,101678.84
2023-01-30T04:41:17.517Z,101686.88
2023-01-30T04:43:44.116Z,101671.97
2023-01-30T04:46:10.675Z,101672.66
2023-01-30T04:48:37.291Z,101684.91
2023-01-30T04:51:04.064Z,101671.72
2023-01-30T04:53:30.573Z,101682.03
2023-01-30T04:55:57.225Z,101674.88
2023-01-30T04:58:23.817Z,101683.66
2023-01-30T05:00:50.384Z,101661.78
2023-01-30T05:03:17.321Z,101677.34
2023-01-30T05:05:47.182Z,101687.53
2023-01-30T05:08:14.214Z,101705.56
2023-01-30T05:10:40.843Z,101699.78
2023-01-30T05:13:07.559Z,101677.47
2023-01-30T05:15:34.088Z,101682.41
2023-01-30T05:18:01.163Z,101698.44
2023-01-30T05:20:27.995Z,101696.47
2023-01-30T05:22:54.584Z,101695.66
2023-01-30T05:25:21.739Z,101689.59
2023-01-30T05:27:48.342Z,101705.31
2023-01-30T05:30:14.967Z,101687.97
2023-01-30T05:32:41.553Z,101699.66
2023-01-30T05:35:08.667Z,101703.25
2023-01-30T05:37:36.241Z,101704.34
2023-01-30T05:40:02.870Z,101702.03
2023-01-30T05:42:30.433Z,101730.94
2023-01-30T05:44:56.931Z,101714.69
2023-01-30T05:47:23.387Z,101722.00
2023-01-30T05:49:49.954Z,101717.88
2023-01-30T05:52:16.532Z,101696.09
2023-01-30T05:54:43.273Z,101712.78
2023-01-30T05:57:09.822Z,101706.72
2023-01-30T05:59:36.355Z,101715.66
2023-01-30T06:02:02.825Z,101708.94
2023-01-30T06:04:29.353Z,101701.78
2023-01-30T06:06:55.916Z,101711.16
2023-01-30T06:09:22.518Z,101713.34
2023-01-30T06:11:49.049Z,101717.72
2023-01-30T06:14:15.644Z,101731.38
2023-01-30T06:16:42.369Z,101726.41
2023-01-30T06:19:09.058Z,101727.75
2023-01-30T06:21:35.568Z,101736.97
2023-01-30T06:24:02.496Z,101734.75
2023-01-30T06:26:29.036Z,101733.63
2023-01-30T06:28:57.900Z,101725.22
2023-01-30T06:31:24.689Z,101735.94
2023-01-30T06:33:52.706Z,101728.63
2023-01-30T06:36:19.303Z,101732.22
2023-01-30T06:38:45.947Z,101738.78
2023-01-30T06:41:12.913Z,101749.78
2023-01-30T06:43:39.504Z,101743.84
2023-01-30T06:46:06.128Z,101738.06
2023-01-30T06:48:32.647Z,101748.78
2023-01-30T06:50:59.282Z,101734.22
2023-01-30T06:53:30.374Z,101739.59
2023-01-30T06:55:58.688Z,101738.22
2023-01-30T06:58:25.691Z,101755.53
2023-01-30T07:00:52.250Z,101750.63
2023-01-30T07:03:19.004Z,101752.66
2023-01-30T07:05:47.672Z,101750.75
2023-01-30T07:08:15.920Z,101764.09
2023-01-30T07:10:43.264Z,101758.59
2023-01-30T07:13:09.915Z,101788.44
2023-01-30T07:15:36.740Z,101769.31
2023-01-30T07:18:03.525Z,101791.88
2023-01-30T07:20:33.725Z,101797.09
2023-01-30T07:23:00.712Z,101803.53
2023-01-30T07:25:28.545Z,101803.06
2023-01-30T07:28:00.217Z,101803.63
2023-01-30T07:30:28.369Z,101801.13
2023-01-30T07:32:57.914Z,101803.88
2023-01-30T07:35:26.373Z,101797.69
2023-01-30T07:37:53.379Z,101798.78
2023-01-30T07:40:21.027Z,101806.63
2023-01-30T07:43:07.501Z,101816.13
2023-01-30T07:45:42.408Z,101815.84
2023-01-30T07:48:11.294Z,101795.53
2023-01-30T07:50:38.445Z,101796.47
2023-01-30T07:53:11.953Z,101806.09
2023-01-30T07:55:38.689Z,101807.88
2023-01-30T07:58:05.455Z,101808.44
2023-01-30T08:00:32.537Z,101808.44
2023-01-30T08:02:59.295Z,101803.38
2023-01-30T08:05:26.452Z,101810.38
2023-01-30T08:07:56.177Z,101811.22
2023-01-30T08:10:22.784Z,101807.75
2023-01-30T08:12:52.645Z,101804.03
2023-01-30T08:15:21.205Z,101803.06
2023-01-30T08:17:56.715Z,101816.72
2023-01-30T08:20:23.780Z,101815.25
2023-01-30T08:22:50.367Z,101821.34
2023-01-30T08:25:17.089Z,101828.53
2023-01-30T08:27:43.699Z,101849.34
2023-01-30T08:30:11.487Z,101846.78
2023-01-30T08:32:38.187Z,101845.72
2023-01-30T08:35:05.696Z,101851.38
2023-01-30T08:37:32.344Z,101836.97
2023-01-30T08:39:58.790Z,101846.84
2023-01-30T08:42:25.338Z,101853.63
2023-01-30T08:44:51.865Z,101843.00
2023-01-30T08:47:18.365Z,101846.75
2023-01-30T08:49:44.883Z,101841.50
2023-01-30T08:52:11.467Z,101846.59
2023-01-30T08:54:38.060Z,101846.19
2023-01-30T08:57:04.510Z,101852.25
2023-01-30T08:59:31.016Z,101855.56
2023-01-30T09:01:57.481Z,101858.59
2023-01-30T09:04:26.551Z,101877.47
2023-01-30T09:06:53.817Z,101864.00
2023-01-30T09:09:20.471Z,101864.56
2023-01-30T09:11:50.072Z,101877.25
2023-01-30T09:14:19.691Z,101882.31
2023-01-30T09:16:55.952Z,101867.59
2023-01-30T09:19:26.535Z,101889.25
2023-01-30T09:21:54.799Z,101872.56
2023-01-30T09:24:26.987Z,101888.81
2023-01-30T09:26:59.001Z,101903.41
2023-01-30T09:29:26.590Z,101899.28
2023-01-30T09:31:53.884Z,101900.13
2023-01-30T09:34:20.528Z,101902.47
2023-01-30T09:36:47.018Z,101912.53
2023-01-30T09:39:13.482Z,101905.25
2023-01-30T09:42:04.967Z,101920.53
2023-01-30T09:45:02.502Z,101914.06
2023-01-30T09:47:55.472Z,101904.97
2023-01-30T09:50:34.304Z,101906.38
2023-01-30T09:53:10.113Z,101915.31
2023-01-30T09:55:39.782Z,101925.91
2023-01-30T09:58:06.419Z,101925.34
2023-01-30T10:00:42.215Z,101917.50
2023-01-30T10:03:08.855Z,101916.81
2023-01-30T10:05:44.378Z,101932.38
2023-01-30T10:08:32.136Z,101929.66
2023-01-30T10:11:10.732Z,101922.63
2023-01-30T10:14:07.293Z,101936.38
2023-01-30T10:16:59.315Z,101949.91
2023-01-30T10:19:44.173Z,101957.75
2023-01-30T10:22:24.082Z,101968.69
2023-01-30T10:24:59.679Z,101960.56
2023-01-30T10:27:30.652Z,101961.13
2023-01-30T10:30:02.468Z,101974.06
2023-01-30T10:32:48.601Z,101953.25
2023-01-30T10:35:39.311Z,101956.97
2023-01-30T10:38:20.182Z,101960.56
2023-01-30T10:40:57.084Z,101965.09
2023-01-30T10:43:31.573Z,101955.44
2023-01-30T10:46:10.268Z,101982.34
2023-01-30T10:48:55.498Z,101968.13
2023-01-30T10:51:43.286Z,101969.66
2023-01-30T10:54:17.488Z,101966.19
2023-01-30T10:57:18.250Z,101974.63
2023-01-30T11:00:10.341Z,101973.94
2023-01-30T11:03:01.221Z,101980.97
2023-01-30T11:05:39.586Z,101962.31
2023-01-30T11:08:18.699Z,101974.16
2023-01-30T11:10:45.329Z,101972.75
2023-01-30T11:13:22.581Z,101963.91
2023-01-30T11:15:53.290Z,101957.50
2023-01-30T11:21:14.697Z,101968.59
2023-01-30T11:23:43.225Z,101972.31
2023-01-30T11:26:46.774Z,101959.94
2023-01-30T11:29:31.374Z,101955.66
2023-01-30T11:32:08.492Z,101969.75
2023-01-30T11:34:35.016Z,101951.81
2023-01-30T11:37:27.326Z,101971.94
2023-01-30T11:39:54.329Z,101966.84
2023-01-30T11:42:29.606Z,101962.97
2023-01-30T11:45:15.735Z,101954.44
2023-01-30T11:47:57.654Z,101953.19
2023-01-30T11:50:41.888Z,101991.44
2023-01-30T11:53:27.631Z,101956.09
2023-01-30T11:56:25.049Z,101956.53
2023-01-30T11:59:21.027Z,101949.03
2023-01-30T12:01:47.667Z,101957.66
2023-01-30T12:04:14.774Z,101963.00
2023-01-30T12:06:43.481Z,101969.25
2023-01-30T12:09:33.716Z,101982.19
2023-01-30T12:12:00.258Z,101993.97
2023-01-30T12:14:36.477Z,101974.38
2023-01-30T12:17:21.516Z,102014.84
2023-01-30T12:19:51.107Z,101990.41
2023-01-30T12:22:45.925Z,101982.00
2023-01-30T12:25:37.099Z,101989.69
2023-01-30T12:28:14.783Z,101986.13
2023-01-30T12:30:57.424Z,102000.50
2023-01-30T12:33:34.727Z,101990.13
2023-01-30T12:36:17.082Z,102019.16
2023-01-30T12:38:50.110Z,101998.00
2023-01-30T12:41:33.378Z,101999.66
2023-01-30T12:44:33.014Z,102009.88
2023-01-30T12:47:08.691Z,102003.97
2023-01-30T12:50:00.258Z,102010.03
2023-01-30T12:52:42.151Z,101998.53
2023-01-30T12:55:19.979Z,102024.91
2023-01-30T12:58:05.193Z,102011.25
2023-01-30T13:00:55.232Z,102024.13
2023-01-30T13:03:36.047Z,102032.25
2023-01-30T13:06:47.678Z,102020.94
2023-01-30T13:09:45.487Z,102019.56
2023-01-30T13:12:40.152Z,102034.47
2023-01-30T13:15:27.946Z,102034.34
2023-01-30T13:18:15.209Z,102044.84
2023-01-30T13:20:53.964Z,102039.31
2023-01-30T13:23:29.903Z,102034.19
2023-01-30T13:26:03.976Z,102044.00
2023-01-30T13:28:43.195Z,102051.19
2023-01-30T13:31:14.993Z,102063.19
2023-01-30T13:33:46.156Z,102076.97
2023-01-30T13:36:21.128Z,102075.88
2023-01-30T13:39:02.985Z,102090.81
2023-01-30T13:41:35.700Z,102085.69
2023-01-30T13:44:17.454Z,102079.06
2023-01-30T13:46:46.983Z,102084.19
2023-01-30T13:49:31.822Z,102092.59
2023-01-30T13:52:15.649Z,102098.53
2023-01-30T13:55:14.718Z,102096.44
2023-01-30T13:58:02.644Z,102104.06
2023-01-30T14:00:33.715Z,102099.63
2023-01-30T14:03:03.476Z,102104.31
2023-01-30T14:05:52.226Z,102101.84
2023-01-30T14:08:50.279Z,102115.94
2023-01-30T14:11:32.414Z,102132.50
2023-01-30T14:14:22.983Z,102126.56
2023-01-30T14:17:17.639Z,102139.00
2023-01-30T14:20:20.380Z,102137.31
2023-01-30T14:23:00.611Z,102148.94
2023-01-30T14:25:42.963Z,102162.31
2023-01-30T14:28:12.464Z,102160.94
2023-01-30T14:30:45.245Z,102149.63
2023-01-30T14:33:51.348Z,102169.91
2023-01-30T14:36:33.221Z,102168.25
2023-01-30T14:39:37.692Z,102177.22
2023-01-30T14:42:28.501Z,102200.13
2023-01-30T14:45:16.141Z,102185.34
2023-01-30T14:47:47.123Z,102189.06
2023-01-30T14:50:23.021Z,102193.63
2023-01-30T14:52:56.100Z,102215.59
2023-01-30T14:55:30.045Z,102206.91
2023-01-30T14:58:00.400Z,102219.16
2023-01-30T15:00:33.568Z,102221.78
2023-01-30T15:03:10.092Z,102230.63
2023-01-30T15:05:43.624Z,102230.63
2023-01-30T15:08:22.781Z,102234.22
2023-01-30T15:11:09.308Z,102232.56
2023-01-30T15:14:03.410Z,102255.19
2023-01-30T15:16:37.833Z,102248.41
2023-01-30T15:19:19.705Z,102245.94
2023-01-30T15:22:13.119Z,102243.31
2023-01-30T15:25:01.455Z,102253.91
2023-01-30T15:27:39.296Z,102261.09
2023-01-30T15:30:25.247Z,102256.69
2023-01-30T15:33:30.045Z,102264.66
2023-01-30T15:35:57.897Z,102277.91
2023-01-30T15:38:26.623Z,102271.97
2023-01-30T15:41:13.540Z,102286.03
2023-01-30T15:44:12.152Z,102288.66
2023-01-30T15:47:05.018Z,102297.66
2023-01-30T15:49:37.686Z,102304.09
2023-01-30T15:52:07.206Z,102297.34
2023-01-30T15:54:35.191Z,102312.59
2023-01-30T15:57:02.001Z,102290.81
2023-01-30T15:59:35.201Z,102317.16
2023-01-30T16:02:13.781Z,102289.56
2023-01-30T16:04:40.723Z,102312.69
2023-01-30T16:07:26.500Z,102322.97
2023-01-30T16:10:07.600Z,102317.75
2023-01-30T16:12:36.638Z,102334.28
2023-01-30T16:15:18.440Z,102354.09
2023-01-30T16:17:48.961Z,102341.31
2023-01-30T16:20:17.526Z,102351.25
2023-01-30T16:22:49.161Z,102352.03
2023-01-30T16:25:22.399Z,102366.00
2023-01-30T16:27:53.535Z,102371.94
2023-01-30T16:30:29.555Z,102371.50
2023-01-30T16:32:57.504Z,102388.41
2023-01-30T16:35:27.082Z,102393.88
2023-01-30T16:37:57.021Z,102403.66
2023-01-30T16:40:32.024Z,102408.31
2023-01-30T16:43:04.377Z,102410.31
2023-01-30T16:45:34.267Z,102419.09
2023-01-30T16:48:33.073Z,102424.72
2023-01-30T16:51:02.773Z,102416.84
2023-01-30T16:53:32.680Z,102414.47
2023-01-30T16:56:07.669Z,102419.34
2023-01-30T16:58:42.704Z,102429.13
2023-01-30T17:01:10.328Z,102438.25
2023-01-30T17:03:41.333Z,102437.81
2023-01-30T17:06:16.911Z,102445.88
2023-01-30T17:08:59.454Z,102449.69
2023-01-30T17:11:35.102Z,102449.81
2023-01-30T17:14:25.892Z,102455.59
2023-01-30T17:17:07.561Z,102455.81
2023-01-30T17:19:37.925Z,102463.78
2023-01-30T17:22:17.832Z,102471.13
2023-01-30T17:24:45.364Z,102478.38
2023-01-30T17:27:12.126Z,102484.78
2023-01-30T17:29:42.757Z,102489.41
2023-01-30T17:32:13.807Z,102496.44
2023-01-30T17:34:43.015Z,102495.59
2023-01-30T17:37:14.016Z,102502.50
2023-01-30T17:39:40.555Z,102506.06
2023-01-30T17:42:11.273Z,102505.44
2023-01-30T17:44:41.063Z,102499.38
2023-01-30T17:47:11.423Z,102505.66
2023-01-30T17:49:37.981Z,102511.84
2023-01-30T17:52:04.732Z,102511.13
2023-01-30T17:54:31.359Z,102513.00
2023-01-30T17:57:06.775Z,102519.31
2023-01-30T17:59:33.548Z,102526.41
2023-01-30T18:02:00.307Z,102524.16
2023-01-30T18:04:27.359Z,102534.00
2023-01-30T18:06:59.017Z,102536.00
2023-01-30T18:09:27.037Z,102537.66
2023-01-30T18:11:53.751Z,102537.78
2023-01-30T18:14:22.200Z,102537.88
2023-01-30T18:16:50.064Z,102537.38
2023-01-30T18:19:24.236Z,102537.72
2023-01-30T18:21:51.065Z,102542.94
2023-01-30T18:24:18.611Z,102544.00
2023-01-30T18:26:45.728Z,102548.72
2023-01-30T18:29:12.739Z,102545.59
2023-01-30T18:31:40.845Z,102551.88
2023-01-30T18:34:09.920Z,102555.75
2023-01-30T18:36:37.066Z,102557.75
2023-01-30T18:39:05.356Z,102562.25
2023-01-30T18:41:32.291Z,102564.97
2023-01-30T18:44:00.960Z,102561.72
2023-01-30T18:46:28.682Z,102565.63
2023-01-30T18:48:56.509Z,102566.78
2023-01-30T18:51:29.056Z,102572.09
2023-01-30T18:53:56.567Z,102562.59
2023-01-30T18:56:25.759Z,102566.25
2023-01-30T18:58:55.026Z,102569.69
2023-01-30T19:01:24.260Z,102576.69
2023-01-30T19:03:55.564Z,102575.03
2023-01-30T19:06:22.919Z,102576.00
2023-01-30T19:08:50.128Z,102570.44
2023-01-30T19:11:38.367Z,102574.09
2023-01-30T19:14:06.139Z,102579.63
2023-01-30T19:16:35.896Z,102588.41
2023-01-30T19:19:03.112Z,102582.56
2023-01-30T19:21:29.912Z,102584.44
2023-01-30T19:23:56.761Z,102586.53
2023-01-30T19:26:24.881Z,102586.25
2023-01-30T19:28:52.343Z,102590.22
2023-01-30T19:31:21.828Z,102589.59
2023-01-30T19:33:56.290Z,102592.28
2023-01-30T19:36:26.763Z,102588.22
2023-01-30T19:38:53.687Z,102588.41
2023-01-30T19:41:24.441Z,102583.41
2023-01-30T19:43:53.048Z,102587.16
2023-01-30T19:46:19.739Z,102589.13
2023-01-30T19:48:47.419Z,102594.47
2023-01-30T19:51:21.158Z,102593.72
2023-01-30T19:53:53.734Z,102598.31
2023-01-30T19:56:22.318Z,102597.66
2023-01-30T19:58:50.873Z,102604.03
2023-01-30T20:01:19.494Z,102602.47
2023-01-30T20:03:46.191Z,102601.63
2023-01-30T20:06:18.201Z,102607.69
2023-01-30T20:08:46.737Z,102606.00
2023-01-30T20:11:15.435Z,102606.84
2023-01-30T20:13:42.629Z,102605.94
2023-01-30T20:16:12.281Z,102604.22
2023-01-30T20:18:40.079Z,102614.66
2023-01-30T20:21:19.016Z,102613.00
2023-01-30T20:23:47.247Z,102624.25
2023-01-30T20:26:16.693Z,102623.44
2023-01-30T20:28:43.549Z,102621.00
2023-01-30T20:31:12.873Z,102623.84
2023-01-30T20:33:39.838Z,102626.53
2023-01-30T20:36:09.410Z,102619.66
2023-01-30T20:38:38.706Z,102625.91
2023-01-30T20:41:26.304Z,102626.72
2023-01-30T20:43:56.578Z,102619.22
2023-01-30T20:46:27.359Z,102621.94
2023-01-30T20:48:56.278Z,102609.63
2023-01-30T20:51:25.367Z,102621.94
2023-01-30T20:53:55.247Z,102635.16
2023-01-30T20:56:23.317Z,102634.63
2023-01-30T20:58:50.094Z,102640.88
2023-01-30T21:01:20.038Z,102647.94
2023-01-30T21:03:50.310Z,102631.78
2023-01-30T21:06:37.258Z,102626.56
2023-01-30T21:09:22.891Z,102635.41
2023-01-30T21:11:52.525Z,102640.72
2023-01-30T21:14:19.191Z,102637.50
2023-01-30T21:16:46.489Z,102643.06
2023-01-30T21:19:16.563Z,102633.78
2023-01-30T21:21:53.456Z,102643.69
2023-01-30T21:24:23.950Z,102647.94
2023-01-30T21:26:51.313Z,102636.88
2023-01-30T21:29:20.741Z,102649.16
2023-01-30T21:31:50.715Z,102646.66
2023-01-30T21:34:17.378Z,102652.16
2023-01-30T21:36:43.951Z,102650.47
2023-01-30T21:39:32.128Z,102632.34
2023-01-30T21:42:17.214Z,102628.06
2023-01-30T21:44:43.615Z,102636.91
2023-01-30T21:47:10.304Z,102644.25
2023-01-30T21:49:37.039Z,102649.56
2023-01-30T21:52:03.990Z,102658.28
2023-01-30T21:54:30.616Z,102658.28
2023-01-30T21:56:57.152Z,102658.28
2023-01-30T21:59:23.670Z,102676.34
2023-01-30T22:01:50.989Z,102669.94
2023-01-30T22:04:17.802Z,102669.53
2023-01-30T22:06:44.586Z,102667.38
2023-01-30T22:09:15.550Z,102674.94
2023-01-30T22:11:43.036Z,102666.06
2023-01-30T22:14:13.250Z,102662.34
2023-01-30T22:16:39.808Z,102667.16
2023-01-30T22:19:06.439Z,102669.66
2023-01-30T22:21:36.346Z,102660.81
2023-01-30T22:24:05.423Z,102663.25
2023-01-30T22:26:32.375Z,102653.53
2023-01-30T22:29:00.298Z,102664.91
2023-01-30T22:31:31.276Z,102668.63
2023-01-30T22:33:57.951Z,102662.97
2023-01-30T22:36:27.139Z,102661.69
2023-01-30T22:38:54.297Z,102654.28
2023-01-30T22:41:25.377Z,102653.81
2023-01-30T22:43:55.576Z,102658.47
2023-01-30T22:46:31.498Z,102653.66
2023-01-30T22:49:00.009Z,102654.03
2023-01-30T22:51:32.306Z,102651.59
2023-01-30T22:54:01.836Z,102647.53
2023-01-30T22:56:37.092Z,102648.00
2023-01-30T22:59:05.002Z,102646.50
2023-01-30T23:01:34.782Z,102639.66
2023-01-30T23:04:07.657Z,102645.13
2023-01-30T23:06:34.715Z,102633.22
2023-01-30T23:09:01.559Z,102624.03
2023-01-30T23:11:42.286Z,102629.41
2023-01-30T23:14:14.604Z,102631.38
2023-01-30T23:16:43.397Z,102633.41
2023-01-30T23:19:12.202Z,102624.13
2023-01-30T23:21:45.394Z,102627.81
2023-01-30T23:24:16.908Z,102614.06
2023-01-30T23:26:46.267Z,102610.06
2023-01-30T23:29:15.102Z,102620.69
2023-01-30T23:31:42.969Z,102611.19
2023-01-30T23:34:18.744Z,102617.50
2023-01-30T23:36:46.145Z,102609.78
2023-01-30T23:39:13.597Z,102612.56
2023-01-30T23:41:40.850Z,102620.47
2023-01-30T23:44:07.740Z,102612.03
2023-01-30T23:46:40.059Z,102623.50
2023-01-30T23:49:12.288Z,102614.13
2023-01-30T23:51:41.973Z,102614.22
2023-01-30T23:54:09.737Z,102610.13
2023-01-30T23:56:39.069Z,102620.69
2023-01-30T23:59:06.408Z,102632.88
